createdAt,value
2019-03-01T00:01:27.736Z,146.40
2019-03-01T00:05:07.419Z,151.43
2019-03-01T00:08:24.389Z,154.40
2019-03-01T00:11:42.824Z,141.65
2019-03-01T00:15:21.074Z,149.90
2019-03-01T00:19:01.409Z,161.37
2019-03-01T00:22:22.850Z,148.23
2019-03-01T00:25:51.662Z,167.07
2019-03-01T00:29:17.439Z,177.60
2019-03-01T00:33:15.643Z,187.60
2019-03-01T00:37:04.407Z,166.92
2019-03-01T00:40:06.827Z,159.37
2019-03-01T00:43:34.006Z,161.07
2019-03-01T00:46:05.981Z,160.63
2019-03-01T00:48:37.703Z,164.87
2019-03-01T00:51:09.404Z,179.40
2019-03-01T00:53:41.161Z,192.30
2019-03-01T00:56:12.478Z,180.67
2019-03-01T00:58:44.164Z,172.32
2019-03-01T01:01:15.644Z,185.35
2019-03-01T01:03:47.271Z,202.80
2019-03-01T01:06:18.631Z,195.30
2019-03-01T01:08:50.259Z,212.33
2019-03-01T01:11:21.709Z,224.23
2019-03-01T01:13:53.355Z,217.20
2019-03-01T01:16:25.428Z,211.40
2019-03-01T01:18:57.037Z,228.63
2019-03-01T01:21:30.293Z,225.70
2019-03-01T01:24:02.549Z,216.17
2019-03-01T01:26:33.815Z,220.30
2019-03-01T01:29:05.449Z,208.27
2019-03-01T01:31:36.762Z,257.83
2019-03-01T01:34:08.087Z,231.57
2019-03-01T01:36:39.388Z,206.83
2019-03-01T01:39:11.567Z,234.80
2019-03-01T01:41:43.617Z,215.80
2019-03-01T01:44:15.288Z,222.27
2019-03-01T01:46:46.620Z,216.93
2019-03-01T01:49:19.277Z,246.40
2019-03-01T01:51:50.827Z,247.10
2019-03-01T01:54:22.142Z,242.70
2019-03-01T01:56:53.783Z,217.07
2019-03-01T01:59:25.141Z,206.27
2019-03-01T02:01:56.441Z,183.43
2019-03-01T02:04:28.270Z,190.30
2019-03-01T02:06:59.567Z,175.40
2019-03-01T02:09:31.306Z,174.35
2019-03-01T02:12:03.489Z,185.45
2019-03-01T02:14:35.180Z,191.10
2019-03-01T02:17:07.673Z,198.37
2019-03-01T02:19:39.290Z,180.03
2019-03-01T02:22:10.916Z,169.37
2019-03-01T02:24:42.543Z,184.67
2019-03-01T02:27:25.314Z,165.30
2019-03-01T02:29:56.817Z,193.83
2019-03-01T02:32:49.181Z,188.93
2019-03-01T02:35:25.763Z,193.60
2019-03-01T02:37:57.071Z,178.77
2019-03-01T02:40:28.632Z,224.00
2019-03-01T02:43:00.193Z,213.13
2019-03-01T02:45:31.826Z,179.80
2019-03-01T02:48:03.298Z,179.10
2019-03-01T02:50:35.001Z,169.97
2019-03-01T02:53:07.963Z,188.20
2019-03-01T02:55:39.315Z,209.00
2019-03-01T02:58:10.960Z,224.20
2019-03-01T03:00:42.256Z,210.53
2019-03-01T03:03:13.689Z,187.03
2019-03-01T03:06:00.363Z,173.87
2019-03-01T03:08:31.676Z,182.13
2019-03-01T03:11:03.488Z,184.63
2019-03-01T03:13:35.252Z,170.82
2019-03-01T03:16:06.907Z,228.87
2019-03-01T03:18:38.618Z,253.20
2019-03-01T03:21:11.559Z,235.93
2019-03-01T03:23:42.809Z,259.98
2019-03-01T03:26:14.195Z,244.87
2019-03-01T03:28:45.930Z,239.10
2019-03-01T03:31:17.310Z,216.53
2019-03-01T03:33:48.714Z,204.53
2019-03-01T03:36:20.442Z,203.20
2019-03-01T03:38:51.755Z,191.90
2019-03-01T03:41:23.075Z,193.37
2019-03-01T03:43:54.355Z,172.40
2019-03-01T03:46:26.048Z,167.77
2019-03-01T03:48:57.564Z,159.70
2019-03-01T03:51:28.953Z,149.30
2019-03-01T03:54:00.279Z,136.10
2019-03-01T03:56:31.958Z,148.07
2019-03-01T03:59:04.144Z,145.53
2019-03-01T04:01:36.185Z,146.73
2019-03-01T04:04:07.514Z,131.47
2019-03-01T04:06:38.854Z,155.93
2019-03-01T04:09:10.646Z,158.47
2019-03-01T04:11:42.558Z,173.55
2019-03-01T04:14:13.897Z,177.10
2019-03-01T04:16:45.560Z,197.40
2019-03-01T04:19:17.276Z,178.90
2019-03-01T04:21:49.050Z,172.37
2019-03-01T04:24:20.481Z,165.37
2019-03-01T04:26:51.786Z,167.50
2019-03-01T04:29:23.073Z,157.47
2019-03-01T04:31:54.671Z,162.82
2019-03-01T04:34:26.570Z,161.00
2019-03-01T04:36:57.886Z,190.93
2019-03-01T04:39:29.299Z,166.37
2019-03-01T04:42:00.620Z,174.07
2019-03-01T04:44:32.859Z,160.57
2019-03-01T04:47:04.845Z,158.90
2019-03-01T04:49:36.177Z,187.50
2019-03-01T04:52:30.343Z,209.13
2019-03-01T04:55:01.675Z,210.20
2019-03-01T04:57:33.649Z,178.63
2019-03-01T05:00:05.993Z,167.70
2019-03-01T05:02:37.344Z,197.80
2019-03-01T05:05:09.020Z,240.53
2019-03-01T05:07:40.460Z,264.50
2019-03-01T05:10:12.774Z,205.93
2019-03-01T05:12:45.932Z,220.95
2019-03-01T05:15:19.943Z,248.93
2019-03-01T05:17:52.471Z,228.60
2019-03-01T05:20:24.105Z,179.23
2019-03-01T05:22:55.413Z,180.97
2019-03-01T05:25:26.798Z,165.03
2019-03-01T05:27:58.482Z,198.90
2019-03-01T05:30:30.238Z,176.77
2019-03-01T05:33:02.511Z,199.07
2019-03-01T05:35:33.903Z,205.33
2019-03-01T05:38:05.584Z,243.82
2019-03-01T05:40:36.976Z,284.40
2019-03-01T05:43:08.579Z,270.80
2019-03-01T05:45:41.199Z,262.33
2019-03-01T05:48:12.796Z,194.73
2019-03-01T05:57:08.782Z,233.63
2019-03-01T05:59:40.357Z,214.63
2019-03-01T06:03:14.813Z,173.77
2019-03-01T06:05:46.225Z,246.43
2019-03-01T06:09:02.419Z,194.80
2019-03-01T06:12:22.995Z,174.07
2019-03-01T06:15:52.082Z,161.20
2019-03-01T06:19:29.963Z,165.03
2019-03-01T06:23:13.221Z,153.13
2019-03-01T06:26:35.673Z,140.07
2019-03-01T06:29:47.911Z,136.83
2019-03-01T06:33:30.620Z,152.07
2019-03-01T06:36:23.432Z,173.97
2019-03-01T06:40:01.356Z,178.57
2019-03-01T06:43:15.915Z,180.23
2019-03-01T06:46:32.811Z,173.10
2019-03-01T06:49:16.097Z,161.37
2019-03-01T06:51:47.373Z,177.20
2019-03-01T06:54:19.362Z,166.17
2019-03-01T06:56:51.386Z,179.07
2019-03-01T06:59:23.010Z,189.45
2019-03-01T07:01:54.445Z,169.80
2019-03-01T07:04:26.107Z,162.10
2019-03-01T07:06:57.397Z,172.57
2019-03-01T07:09:29.111Z,148.73
2019-03-01T07:12:01.215Z,156.90
2019-03-01T07:14:32.733Z,139.63
2019-03-01T07:17:04.012Z,153.83
2019-03-01T07:19:35.663Z,151.70
2019-03-01T07:22:07.276Z,144.03
2019-03-01T07:24:38.639Z,149.33
2019-03-01T07:27:12.386Z,144.37
2019-03-01T07:29:44.312Z,160.50
2019-03-01T07:32:15.652Z,153.97
2019-03-01T07:34:47.431Z,166.03
2019-03-01T07:37:19.090Z,142.23
2019-03-01T07:39:50.923Z,158.77
2019-03-01T07:42:22.286Z,151.93
2019-03-01T07:44:53.872Z,159.90
2019-03-01T07:47:25.144Z,152.27
2019-03-01T07:49:57.052Z,171.67
2019-03-01T07:52:28.468Z,180.87
2019-03-01T07:55:02.976Z,199.50
2019-03-01T07:57:34.908Z,189.03
2019-03-01T08:00:14.015Z,158.63
2019-03-01T08:02:45.688Z,195.63
2019-03-01T08:05:17.363Z,186.00
2019-03-01T08:07:56.002Z,177.87
2019-03-01T08:10:23.482Z,165.93
2019-03-01T08:12:54.905Z,180.80
2019-03-01T08:15:27.238Z,189.43
2019-03-01T08:18:00.409Z,170.07
2019-03-01T08:20:33.912Z,164.70
2019-03-01T08:23:05.382Z,172.90
2019-03-01T08:25:37.638Z,189.73
2019-03-01T08:28:09.046Z,168.13
2019-03-01T08:30:42.457Z,165.63
2019-03-01T08:33:14.569Z,147.32
2019-03-01T08:35:46.237Z,144.33
2019-03-01T08:38:17.593Z,138.17
2019-03-01T08:40:50.773Z,132.00
2019-03-01T08:43:22.169Z,131.45
2019-03-01T08:45:54.078Z,130.57
2019-03-01T08:48:26.111Z,127.40
2019-03-01T08:50:59.593Z,126.90
2019-03-01T08:53:31.012Z,130.83
2019-03-01T08:56:03.356Z,126.50
2019-03-01T08:58:37.593Z,132.70
2019-03-01T09:01:09.799Z,133.17
2019-03-01T09:03:50.052Z,129.50
2019-03-01T09:06:22.258Z,137.20
2019-03-01T09:08:54.043Z,132.22
2019-03-01T09:11:25.943Z,134.37
2019-03-01T09:13:57.275Z,142.40
2019-03-01T09:16:28.665Z,134.23
2019-03-01T09:19:00.977Z,134.47
2019-03-01T09:21:36.028Z,135.93
2019-03-01T09:24:07.339Z,139.25
2019-03-01T09:26:55.174Z,121.47
2019-03-01T09:29:27.365Z,124.70
2019-03-01T09:31:59.747Z,135.03
2019-03-01T09:34:32.902Z,128.97
2019-03-01T09:37:04.340Z,123.67
2019-03-01T09:39:35.940Z,129.15
2019-03-01T09:42:07.736Z,132.47
2019-03-01T09:44:39.343Z,129.83
2019-03-01T09:47:11.273Z,131.00
2019-03-01T09:49:42.593Z,150.80
2019-03-01T09:52:14.285Z,160.93
2019-03-01T09:54:45.589Z,157.23
2019-03-01T09:57:17.034Z,150.83
2019-03-01T09:59:48.739Z,166.90
2019-03-01T10:02:20.794Z,155.27
2019-03-01T10:04:55.226Z,157.07
2019-03-01T10:07:26.820Z,161.97
2019-03-01T10:09:58.482Z,158.20
2019-03-01T10:12:29.911Z,161.20
2019-03-01T10:15:01.312Z,158.73
2019-03-01T10:17:33.425Z,153.42
2019-03-01T10:20:05.744Z,167.30
2019-03-01T10:22:37.452Z,149.90
2019-03-01T10:25:11.013Z,154.50
2019-03-01T10:27:42.505Z,146.27
2019-03-01T10:30:19.590Z,146.05
2019-03-01T10:32:51.182Z,154.50
2019-03-01T10:35:22.570Z,156.07
2019-03-01T10:37:53.930Z,150.47
2019-03-01T10:40:25.741Z,149.37
2019-03-01T10:42:57.426Z,145.23
2019-03-01T10:45:30.072Z,148.50
2019-03-01T10:48:01.542Z,145.80
2019-03-01T10:50:33.405Z,139.57
2019-03-01T10:53:05.978Z,128.47
2019-03-01T10:55:37.427Z,133.33
2019-03-01T10:58:09.139Z,122.50
2019-03-01T11:00:40.944Z,135.20
2019-03-01T11:03:12.294Z,114.10
2019-03-01T11:05:43.644Z,125.23
2019-03-01T11:08:15.012Z,131.37
2019-03-01T11:10:46.756Z,122.07
2019-03-01T11:13:18.368Z,121.77
2019-03-01T11:15:49.744Z,130.70
2019-03-01T11:18:21.365Z,117.13
2019-03-01T11:20:52.771Z,129.80
2019-03-01T11:23:24.286Z,140.83
2019-03-01T11:25:55.926Z,151.23
2019-03-01T11:28:27.300Z,152.20
2019-03-01T11:30:58.994Z,137.80
2019-03-01T11:33:30.631Z,138.43
2019-03-01T11:36:02.375Z,145.63
2019-03-01T11:38:33.732Z,143.97
2019-03-01T11:41:05.866Z,125.00
2019-03-01T11:43:37.929Z,126.27
2019-03-01T11:46:09.415Z,120.60
2019-03-01T11:48:41.270Z,120.47
2019-03-01T11:51:13.591Z,113.05
2019-03-01T11:53:45.840Z,120.00
2019-03-01T11:56:17.312Z,114.03
2019-03-01T11:58:49.077Z,117.47
2019-03-01T12:01:21.125Z,106.57
2019-03-01T12:03:52.492Z,111.33
2019-03-01T12:06:24.235Z,104.27
2019-03-01T12:08:55.603Z,104.90
2019-03-01T12:11:27.043Z,104.33
2019-03-01T12:13:59.059Z,110.57
2019-03-01T12:16:30.748Z,112.93
2019-03-01T12:19:02.472Z,99.13
2019-03-01T12:21:35.317Z,108.13
2019-03-01T12:24:06.973Z,121.93
2019-03-01T12:26:39.127Z,126.13
2019-03-01T12:29:11.478Z,125.40
2019-03-01T12:31:43.605Z,127.27
2019-03-01T12:34:15.635Z,105.33
2019-03-01T12:36:47.591Z,95.23
2019-03-01T12:39:20.205Z,93.92
2019-03-01T12:41:52.041Z,91.33
2019-03-01T12:44:23.749Z,72.17
2019-03-01T12:46:56.026Z,59.40
2019-03-01T12:49:28.048Z,59.10
2019-03-01T12:51:59.436Z,60.40
2019-03-01T12:54:31.230Z,62.97
2019-03-01T12:57:02.738Z,59.80
2019-03-01T12:59:35.141Z,61.20
2019-03-01T13:02:06.645Z,61.50
2019-03-01T13:04:39.106Z,58.03
2019-03-01T13:07:13.243Z,60.90
2019-03-01T13:09:43.882Z,58.97
2019-03-01T13:12:16.275Z,49.48
2019-03-01T13:14:47.975Z,49.87
2019-03-01T13:17:19.352Z,38.27
2019-03-01T13:19:50.640Z,47.62
2019-03-01T13:22:24.814Z,40.30
2019-03-01T13:24:55.568Z,38.03
2019-03-01T13:27:26.921Z,38.07
2019-03-01T13:29:58.638Z,34.83
2019-03-01T13:32:32.046Z,41.45
2019-03-01T13:35:03.699Z,33.73
2019-03-01T13:37:35.409Z,34.87
2019-03-01T13:40:07.886Z,34.97
2019-03-01T13:42:40.644Z,29.97
2019-03-01T13:45:15.784Z,31.03
2019-03-01T13:47:47.722Z,35.52
2019-03-01T13:50:19.624Z,26.47
2019-03-01T13:52:51.291Z,23.63
2019-03-01T13:55:23.744Z,19.80
2019-03-01T13:57:58.427Z,17.07
2019-03-01T14:00:29.821Z,16.63
2019-03-01T14:03:02.361Z,16.17
2019-03-01T14:05:33.680Z,12.20
2019-03-01T14:08:09.035Z,18.50
2019-03-01T14:10:38.465Z,14.77
2019-03-01T14:13:14.134Z,14.53
2019-03-01T14:15:44.145Z,11.38
2019-03-01T14:18:15.461Z,12.10
2019-03-01T14:20:47.075Z,12.53
2019-03-01T14:23:21.225Z,11.35
2019-03-01T14:25:52.131Z,9.80
2019-03-01T14:28:23.837Z,8.53
2019-03-01T14:30:55.295Z,8.83
2019-03-01T14:33:32.901Z,10.90
2019-03-01T14:36:02.718Z,8.37
2019-03-01T14:38:34.928Z,9.03
2019-03-01T14:41:06.248Z,9.80
2019-03-01T14:43:37.796Z,8.43
2019-03-01T14:46:09.435Z,10.83
2019-03-01T14:48:42.955Z,10.17
2019-03-01T14:51:14.004Z,6.60
2019-03-01T14:53:46.049Z,10.20
2019-03-01T14:56:31.234Z,9.30
2019-03-01T14:59:58.800Z,9.30
2019-03-01T15:03:15.913Z,5.83
2019-03-01T15:05:43.730Z,5.57
2019-03-01T15:08:15.448Z,8.97
2019-03-01T15:10:47.160Z,7.37
2019-03-01T15:13:18.531Z,5.77
2019-03-01T15:15:51.245Z,6.17
2019-03-01T15:18:24.975Z,6.87
2019-03-01T15:21:01.434Z,11.13
2019-03-01T15:23:29.641Z,7.47
2019-03-01T15:26:01.250Z,12.87
2019-03-01T15:28:32.829Z,8.80
2019-03-01T15:31:04.534Z,11.97
2019-03-01T15:33:35.854Z,7.80
2019-03-01T15:36:07.175Z,7.53
2019-03-01T15:38:38.483Z,6.67
2019-03-01T15:41:09.882Z,8.10
2019-03-01T15:43:41.283Z,6.20
2019-03-01T15:46:14.406Z,10.53
2019-03-01T15:48:46.587Z,7.83
2019-03-01T15:51:17.948Z,9.87
2019-03-01T15:53:49.299Z,10.73
2019-03-01T15:56:22.096Z,12.33
2019-03-01T15:58:53.953Z,6.47
2019-03-01T16:01:25.409Z,8.13
2019-03-01T16:03:57.171Z,8.28
2019-03-01T16:06:29.710Z,5.97
2019-03-01T16:09:01.671Z,7.73
2019-03-01T16:11:32.970Z,10.67
2019-03-01T16:14:04.561Z,7.93
2019-03-01T16:16:35.882Z,8.20
2019-03-01T16:19:07.228Z,7.47
2019-03-01T16:21:39.793Z,11.40
2019-03-01T16:24:11.478Z,8.50
2019-03-01T16:26:42.752Z,8.33
2019-03-01T16:29:14.307Z,9.73
2019-03-01T16:31:45.622Z,8.53
2019-03-01T16:34:17.443Z,12.20
2019-03-01T16:36:51.794Z,12.03
2019-03-01T16:39:23.874Z,8.07
2019-03-01T16:41:56.857Z,9.00
2019-03-01T16:44:28.651Z,10.40
2019-03-01T16:47:00.309Z,9.84
2019-03-01T16:49:31.668Z,9.00
2019-03-01T16:52:03.047Z,9.53
2019-03-01T16:54:35.124Z,13.10
2019-03-01T16:57:06.715Z,9.03
2019-03-01T16:59:39.582Z,11.20
2019-03-01T17:02:11.361Z,7.13
2019-03-01T17:04:42.659Z,11.23
2019-03-01T17:07:14.120Z,4.87
2019-03-01T17:09:47.281Z,10.00
2019-03-01T17:12:19.577Z,16.93
2019-03-01T17:14:51.148Z,16.37
2019-03-01T17:17:22.842Z,6.93
2019-03-01T17:19:54.411Z,12.80
2019-03-01T17:22:27.626Z,7.80
2019-03-01T17:25:00.122Z,10.10
2019-03-01T17:27:31.551Z,11.45
2019-03-01T17:30:03.107Z,7.37
2019-03-01T17:32:36.941Z,10.00
2019-03-01T17:35:10.048Z,8.33
2019-03-01T17:37:41.708Z,12.97
2019-03-01T17:40:13.293Z,13.73
2019-03-01T17:42:45.293Z,14.00
2019-03-01T17:45:20.980Z,16.63
2019-03-01T17:47:51.453Z,14.27
2019-03-01T17:50:22.854Z,18.93
2019-03-01T17:52:54.453Z,11.77
2019-03-01T17:55:25.782Z,15.23
2019-03-01T17:57:57.136Z,13.23
2019-03-01T18:00:34.938Z,9.60
2019-03-01T18:03:07.319Z,6.13
2019-03-01T18:05:40.574Z,6.85
2019-03-01T18:08:14.018Z,9.80
2019-03-01T18:10:46.043Z,10.57
2019-03-01T18:13:17.675Z,8.47
2019-03-01T18:15:49.676Z,11.03
2019-03-01T18:18:21.789Z,8.73
2019-03-01T18:20:53.129Z,13.67
2019-03-01T18:23:24.784Z,16.20
2019-03-01T18:25:56.166Z,12.47
2019-03-01T18:28:28.369Z,13.13
2019-03-01T18:31:00.590Z,12.70
2019-03-01T18:33:32.278Z,12.47
2019-03-01T18:36:03.777Z,11.73
2019-03-01T18:38:38.068Z,13.38
2019-03-01T18:41:11.068Z,8.47
2019-03-01T18:43:45.863Z,8.93
2019-03-01T18:46:19.243Z,13.47
2019-03-01T18:48:49.371Z,8.93
2019-03-01T18:51:20.795Z,12.53
2019-03-01T18:53:52.734Z,17.60
2019-03-01T18:56:24.996Z,14.40
2019-03-01T18:58:57.599Z,15.20
2019-03-01T19:01:29.165Z,11.93
2019-03-01T19:04:01.177Z,15.30
2019-03-01T19:06:32.642Z,14.70
2019-03-01T19:09:05.429Z,13.23
2019-03-01T19:11:37.953Z,15.18
2019-03-01T19:14:10.019Z,11.13
2019-03-01T19:16:41.331Z,14.77
2019-03-01T19:19:13.384Z,14.68
2019-03-01T19:21:44.681Z,17.33
2019-03-01T19:24:16.381Z,18.95
2019-03-01T19:26:47.800Z,12.57
2019-03-01T19:29:20.973Z,14.40
2019-03-01T19:31:52.576Z,9.67
2019-03-01T19:34:24.254Z,21.47
2019-03-01T19:36:55.576Z,16.90
2019-03-01T19:39:26.906Z,19.70
2019-03-01T19:41:59.244Z,13.00
2019-03-01T19:44:31.122Z,14.73
2019-03-01T19:47:02.858Z,11.97
2019-03-01T19:49:35.079Z,10.93
2019-03-01T19:52:09.370Z,19.17
2019-03-01T19:54:39.541Z,28.05
2019-03-01T19:57:10.944Z,23.20
2019-03-01T19:59:42.258Z,18.37
2019-03-01T20:02:13.665Z,12.40
2019-03-01T20:04:45.766Z,13.75
2019-03-01T20:07:19.751Z,14.65
2019-03-01T20:09:50.630Z,15.03
2019-03-01T20:12:22.134Z,20.43
2019-03-01T20:14:55.877Z,8.83
2019-03-01T20:17:30.309Z,11.20
2019-03-01T20:20:00.755Z,14.37
2019-03-01T20:22:32.504Z,13.13
2019-03-01T20:25:04.839Z,20.83
2019-03-01T20:27:39.041Z,18.03
2019-03-01T20:30:17.614Z,19.30
2019-03-01T20:32:51.074Z,17.53
2019-03-01T20:35:22.296Z,19.13
2019-03-01T20:37:53.640Z,12.63
2019-03-01T20:40:26.735Z,18.60
2019-03-01T20:43:01.219Z,19.33
2019-03-01T20:45:31.410Z,19.33
2019-03-01T20:48:03.058Z,24.10
2019-03-01T20:50:36.425Z,24.00
2019-03-01T20:53:10.092Z,23.93
2019-03-01T20:55:40.351Z,23.30
2019-03-01T20:58:12.406Z,23.33
2019-03-01T21:00:43.975Z,21.05
2019-03-01T21:03:15.737Z,22.60
2019-03-01T21:05:47.356Z,24.90
2019-03-01T21:08:18.708Z,25.33
2019-03-01T21:10:50.865Z,25.40
2019-03-01T21:13:25.397Z,27.67
2019-03-01T21:15:56.786Z,25.52
2019-03-01T21:18:30.821Z,34.07
2019-03-01T21:21:01.341Z,27.23
2019-03-01T21:23:32.834Z,24.37
2019-03-01T21:26:04.598Z,23.97
2019-03-01T21:28:36.618Z,25.87
2019-03-01T21:31:09.187Z,28.43
2019-03-01T21:33:40.515Z,31.17
2019-03-01T21:36:13.093Z,30.45
2019-03-01T21:38:45.632Z,34.43
2019-03-01T21:41:17.784Z,29.20
2019-03-01T21:43:52.714Z,30.67
2019-03-01T21:46:24.184Z,35.17
2019-03-01T21:48:56.746Z,30.20
2019-03-01T21:51:28.959Z,26.80
2019-03-01T21:54:00.293Z,26.23
2019-03-01T21:56:31.690Z,24.50
2019-03-01T21:59:02.979Z,23.87
2019-03-01T22:01:34.270Z,28.77
2019-03-01T22:04:05.659Z,29.23
2019-03-01T22:06:40.071Z,28.97
2019-03-01T22:09:11.575Z,25.03
2019-03-01T22:11:45.804Z,28.00
2019-03-01T22:14:16.331Z,25.87
2019-03-01T22:16:48.281Z,27.83
2019-03-01T22:19:19.568Z,24.80
2019-03-01T22:21:50.873Z,25.27
2019-03-01T22:24:23.718Z,26.47
2019-03-01T22:26:55.172Z,29.17
2019-03-01T22:29:27.213Z,25.90
2019-03-01T22:31:58.614Z,26.57
2019-03-01T22:34:31.041Z,26.43
2019-03-01T22:37:04.019Z,26.43
2019-03-01T22:39:35.676Z,24.70
2019-03-01T22:42:07.032Z,25.83
2019-03-01T22:44:38.391Z,27.47
2019-03-01T22:47:10.489Z,27.63
2019-03-01T22:49:42.799Z,35.50
2019-03-01T22:52:14.112Z,27.73
2019-03-01T22:54:45.499Z,25.37
2019-03-01T22:57:19.196Z,23.05
2019-03-01T22:59:50.964Z,25.73
2019-03-01T23:02:24.377Z,21.77
2019-03-01T23:04:56.450Z,25.50
2019-03-01T23:07:27.857Z,30.72
2019-03-01T23:09:59.863Z,23.47
2019-03-01T23:12:31.470Z,21.40
2019-03-01T23:15:06.544Z,25.80
2019-03-01T23:17:35.728Z,24.63
2019-03-01T23:20:08.906Z,25.37
2019-03-01T23:22:42.682Z,24.92
2019-03-01T23:25:13.634Z,23.50
2019-03-01T23:27:46.127Z,27.77
2019-03-01T23:30:17.731Z,30.57
2019-03-01T23:32:52.646Z,26.77
2019-03-01T23:35:24.201Z,73.90
2019-03-01T23:37:55.565Z,33.08
2019-03-01T23:40:26.775Z,26.43
2019-03-01T23:42:58.413Z,25.03
2019-03-01T23:45:30.396Z,23.33
2019-03-01T23:48:02.013Z,25.07
2019-03-01T23:50:34.881Z,31.63
2019-03-01T23:53:06.586Z,31.37
2019-03-01T23:55:37.882Z,23.70
2019-03-01T23:58:09.286Z,23.05
